createdAt,value
2017-09-03T00:00:21.107Z,12.69
2017-09-03T00:01:34.870Z,12.69
2017-09-03T00:02:48.579Z,12.57
2017-09-03T00:04:02.833Z,12.55
2017-09-03T00:05:16.907Z,12.44
2017-09-03T00:06:31.321Z,12.44
2017-09-03T00:07:45.015Z,12.43
2017-09-03T00:08:58.667Z,12.44
2017-09-03T00:10:13.334Z,12.45
2017-09-03T00:11:26.987Z,12.43
2017-09-03T00:12:40.620Z,12.66
2017-09-03T00:13:54.596Z,12.8
2017-09-03T00:15:09.279Z,12.84
2017-09-03T00:16:23.688Z,12.95
2017-09-03T00:17:37.291Z,12.98
2017-09-03T00:18:50.853Z,13.01
2017-09-03T00:20:04.458Z,13.02
2017-09-03T00:21:18.150Z,13.02
2017-09-03T00:22:32.030Z,12.86
2017-09-03T00:23:46.377Z,12.83
2017-09-03T00:24:59.960Z,12.87
2017-09-03T00:26:14.000Z,12.8
2017-09-03T00:27:27.936Z,12.68
2017-09-03T00:28:41.844Z,12.8
2017-09-03T00:29:55.787Z,12.88
2017-09-03T00:31:09.346Z,13.02
2017-09-03T00:32:23.002Z,13.19
2017-09-03T00:33:36.646Z,13.2
2017-09-03T00:34:50.570Z,13.2
2017-09-03T00:36:04.503Z,13.3
2017-09-03T00:37:18.123Z,13.33
2017-09-03T00:38:32.165Z,13.24
2017-09-03T00:39:45.809Z,13.24
2017-09-03T00:41:00.144Z,13.28
2017-09-03T00:42:13.804Z,13.36
2017-09-03T00:43:27.498Z,13.21
2017-09-03T00:44:41.750Z,13.31
2017-09-03T00:45:55.693Z,13.27
2017-09-03T00:47:09.559Z,13.27
2017-09-03T00:48:23.257Z,13.31
2017-09-03T00:49:36.863Z,13.27
2017-09-03T00:50:50.444Z,13.27
2017-09-03T00:52:04.853Z,13.23
2017-09-03T00:53:18.774Z,13.3
2017-09-03T00:54:32.782Z,13.28
2017-09-03T00:55:46.354Z,13.39
2017-09-03T00:57:00.574Z,13.45
2017-09-03T00:58:14.452Z,13.39
2017-09-03T00:59:28.785Z,13.4
2017-09-03T01:00:42.550Z,13.4
2017-09-03T01:01:56.142Z,13.39
2017-09-03T01:03:09.750Z,13.43
2017-09-03T01:04:23.350Z,13.36
2017-09-03T01:05:37.221Z,13.39
2017-09-03T01:06:50.805Z,13.4
2017-09-03T01:08:04.560Z,13.27
2017-09-03T01:09:18.231Z,13.28
2017-09-03T01:10:32.182Z,13.13
2017-09-03T01:11:46.574Z,13.12
2017-09-03T01:13:00.496Z,12.93
2017-09-03T01:14:14.116Z,12.81
2017-09-03T01:15:28.091Z,12.75
2017-09-03T01:16:41.985Z,12.66
2017-09-03T01:17:55.986Z,12.54
2017-09-03T01:19:09.979Z,12.47
2017-09-03T01:20:23.550Z,12.39
2017-09-03T01:21:37.857Z,12.35
2017-09-03T01:22:51.463Z,12.28
2017-09-03T01:24:05.417Z,12.12
2017-09-03T01:25:19.001Z,12.12
2017-09-03T01:26:32.561Z,12.2
2017-09-03T01:27:46.131Z,12.11
2017-09-03T01:28:59.697Z,12.23
2017-09-03T01:30:13.622Z,12.12
2017-09-03T01:31:27.190Z,12.11
2017-09-03T01:32:40.842Z,12.14
2017-09-03T01:33:54.431Z,12.2
2017-09-03T01:35:08.498Z,12.11
2017-09-03T01:36:22.361Z,12.18
2017-09-03T01:37:36.008Z,11.99
2017-09-03T01:38:49.593Z,12.11
2017-09-03T01:40:03.154Z,12.11
2017-09-03T01:41:16.719Z,12.23
2017-09-03T01:42:30.689Z,12.2
2017-09-03T01:43:44.315Z,12.23
2017-09-03T01:44:57.886Z,12.21
2017-09-03T01:46:11.496Z,12.2
2017-09-03T01:47:25.075Z,12.2
2017-09-03T01:48:38.927Z,12.21
2017-09-03T01:49:52.591Z,12.2
2017-09-03T01:51:06.143Z,12.2
2017-09-03T01:52:19.713Z,12.11
2017-09-03T01:53:33.322Z,12.14
2017-09-03T01:54:47.408Z,12.14
2017-09-03T01:56:01.016Z,12.14
2017-09-03T01:57:14.708Z,12.17
2017-09-03T01:58:28.311Z,12.1
2017-09-03T01:59:41.898Z,12.15
2017-09-03T02:00:56.092Z,12.14
2017-09-03T02:02:09.674Z,12.26
2017-09-03T02:03:23.243Z,12.28
2017-09-03T02:04:36.880Z,12.28
2017-09-03T02:05:50.443Z,12.28
2017-09-03T02:07:04.322Z,12.33
2017-09-03T02:08:17.888Z,12.37
2017-09-03T02:09:31.489Z,12.36
2017-09-03T02:10:45.054Z,12.32
2017-09-03T02:11:58.720Z,12.4
2017-09-03T02:13:12.631Z,12.36
2017-09-03T02:14:26.240Z,12.35
2017-09-03T02:15:39.838Z,12.28
2017-09-03T02:16:53.459Z,12.29
2017-09-03T02:18:07.020Z,12.25
2017-09-03T02:19:27.490Z,12.15
2017-09-03T02:20:41.077Z,12.15
2017-09-03T02:21:54.697Z,12.14
2017-09-03T02:23:08.487Z,12.1
2017-09-03T02:24:22.089Z,12
2017-09-03T02:25:35.963Z,11.99
2017-09-03T02:26:49.747Z,11.99
2017-09-03T02:28:03.340Z,12.17
2017-09-03T02:29:17.052Z,12.03
2017-09-03T02:30:30.623Z,12.17
2017-09-03T02:31:44.972Z,12.14
2017-09-03T02:32:58.601Z,12.18
2017-09-03T02:34:12.207Z,12.14
2017-09-03T02:35:26.119Z,12.2
2017-09-03T02:36:39.689Z,12.15
2017-09-03T02:37:53.551Z,12.1
2017-09-03T02:39:07.135Z,12.2
2017-09-03T02:40:20.711Z,12.15
2017-09-03T02:41:34.289Z,12.14
2017-09-03T02:42:48.074Z,12.1
2017-09-03T02:44:01.932Z,12.02
2017-09-03T02:45:15.485Z,12.14
2017-09-03T02:46:29.083Z,12.18
2017-09-03T02:47:42.644Z,12.17
2017-09-03T02:48:56.230Z,12.2
2017-09-03T02:50:10.575Z,12.12
2017-09-03T02:51:24.337Z,12.18
2017-09-03T02:52:37.901Z,12.18
2017-09-03T02:53:51.530Z,12.08
2017-09-03T02:55:05.082Z,11.97
2017-09-03T02:56:19.281Z,12.08
2017-09-03T02:57:32.891Z,12.1
2017-09-03T02:58:46.468Z,12.14
2017-09-03T03:00:00.067Z,12.08
2017-09-03T03:01:13.598Z,12.08
2017-09-03T03:02:27.631Z,12.05
2017-09-03T03:03:41.251Z,12.15
2017-09-03T03:04:54.835Z,12.07
2017-09-03T03:06:08.729Z,12.03
2017-09-03T03:07:22.297Z,12
2017-09-03T03:08:36.346Z,11.99
2017-09-03T03:09:50.093Z,12.02
2017-09-03T03:11:03.794Z,12.02
2017-09-03T03:12:17.573Z,12.11
2017-09-03T03:13:31.156Z,12.05
2017-09-03T03:14:45.010Z,12.12
2017-09-03T03:15:58.574Z,11.97
2017-09-03T03:17:12.282Z,12.12
2017-09-03T03:18:25.854Z,12.05
2017-09-03T03:19:39.743Z,11.96
2017-09-03T03:20:53.946Z,11.96
2017-09-03T03:22:07.486Z,11.97
2017-09-03T03:23:21.074Z,11.89
2017-09-03T03:24:34.678Z,11.73
2017-09-03T03:25:48.236Z,11.73
2017-09-03T03:27:02.223Z,11.7
2017-09-03T03:28:15.776Z,11.7
2017-09-03T03:29:29.894Z,11.71
2017-09-03T03:30:43.564Z,11.71
2017-09-03T03:31:57.468Z,11.67
2017-09-03T03:33:11.360Z,11.74
2017-09-03T03:34:25.030Z,11.71
2017-09-03T03:35:38.645Z,11.76
2017-09-03T03:36:52.590Z,11.7
2017-09-03T03:38:06.161Z,11.68
2017-09-03T03:39:20.171Z,11.63
2017-09-03T03:40:33.719Z,11.76
2017-09-03T03:41:47.657Z,11.68
2017-09-03T03:43:01.585Z,11.73
2017-09-03T03:44:15.194Z,11.71
2017-09-03T03:45:29.282Z,11.8
2017-09-03T03:46:43.160Z,11.71
2017-09-03T03:47:56.809Z,11.76
2017-09-03T03:49:10.645Z,11.58
2017-09-03T03:50:24.206Z,11.59
2017-09-03T03:51:38.081Z,11.53
2017-09-03T03:52:51.653Z,11.49
2017-09-03T03:54:05.233Z,11.38
2017-09-03T03:55:18.793Z,11.44
2017-09-03T03:56:32.362Z,11.38
2017-09-03T03:57:46.245Z,11.27
2017-09-03T03:58:59.809Z,11.34
2017-09-03T04:00:13.430Z,11.38
2017-09-03T04:01:27.044Z,11.44
2017-09-03T04:02:40.667Z,11.41
2017-09-03T04:03:54.517Z,11.49
2017-09-03T04:05:08.262Z,11.4
2017-09-03T04:06:22.215Z,11.3
2017-09-03T04:07:35.825Z,11.18
2017-09-03T04:08:49.377Z,11.23
2017-09-03T04:10:03.286Z,11.22
2017-09-03T04:11:16.909Z,11.22
2017-09-03T04:12:31.285Z,11.19
2017-09-03T04:13:44.862Z,11.12
2017-09-03T04:14:58.769Z,11.04
2017-09-03T04:16:12.695Z,10.98
2017-09-03T04:17:26.277Z,11
2017-09-03T04:18:39.820Z,10.95
2017-09-03T04:19:53.381Z,10.92
2017-09-03T04:21:07.381Z,10.98
2017-09-03T04:22:21.265Z,10.98
2017-09-03T04:23:34.829Z,10.94
2017-09-03T04:24:48.381Z,10.97
2017-09-03T04:26:02.287Z,10.92
2017-09-03T04:27:16.190Z,10.86
2017-09-03T04:28:30.224Z,10.94
2017-09-03T04:29:43.795Z,10.92
2017-09-03T04:30:57.445Z,10.94
2017-09-03T04:32:12.248Z,10.89
2017-09-03T04:33:25.932Z,10.94
2017-09-03T04:34:40.128Z,10.87
2017-09-03T04:35:53.677Z,10.95
2017-09-03T04:37:07.322Z,11.07
2017-09-03T04:38:20.882Z,11.01
2017-09-03T04:39:34.757Z,11.01
2017-09-03T04:40:48.611Z,11.05
2017-09-03T04:42:02.231Z,11
2017-09-03T04:43:15.796Z,10.97
2017-09-03T04:44:29.388Z,11.01
2017-09-03T04:45:42.956Z,11.07
2017-09-03T04:46:56.999Z,11
2017-09-03T04:48:10.584Z,10.97
2017-09-03T04:49:24.162Z,11.04
2017-09-03T04:50:37.746Z,11.07
2017-09-03T04:51:51.323Z,10.97
2017-09-03T04:53:05.251Z,11.13
2017-09-03T04:54:19.485Z,11.22
2017-09-03T04:55:33.370Z,11.3
2017-09-03T04:56:46.937Z,11.33
2017-09-03T04:58:00.574Z,11.34
2017-09-03T04:59:14.539Z,11.3
2017-09-03T05:00:28.551Z,11.31
2017-09-03T05:01:42.126Z,11.23
2017-09-03T05:02:55.746Z,11.33
2017-09-03T05:04:09.327Z,11.31
2017-09-03T05:05:23.176Z,11.41
2017-09-03T05:06:36.797Z,11.44
2017-09-03T05:07:50.419Z,11.58
2017-09-03T05:09:04.165Z,11.56
2017-09-03T05:10:17.751Z,11.67
2017-09-03T05:11:31.973Z,11.68
2017-09-03T05:12:45.520Z,11.89
2017-09-03T05:13:59.067Z,11.86
2017-09-03T05:15:12.625Z,12
2017-09-03T05:16:26.233Z,12
2017-09-03T05:17:40.180Z,12.15
2017-09-03T05:18:53.750Z,12.14
2017-09-03T05:20:07.318Z,12.23
2017-09-03T05:21:21.547Z,12.17
2017-09-03T05:22:35.273Z,12.28
2017-09-03T05:23:49.326Z,12.32
2017-09-03T05:25:02.919Z,12.43
2017-09-03T05:26:16.705Z,12.4
2017-09-03T05:27:30.266Z,12.43
2017-09-03T05:28:43.821Z,12.4
2017-09-03T05:29:57.854Z,12.4
2017-09-03T05:31:11.436Z,12.37
2017-09-03T05:32:24.999Z,12.33
2017-09-03T05:33:38.579Z,12.29
2017-09-03T05:34:52.148Z,12.29
2017-09-03T05:36:05.991Z,12.23
2017-09-03T05:37:19.812Z,12.25
2017-09-03T05:38:33.932Z,12.15
2017-09-03T05:39:47.538Z,12.3
2017-09-03T05:41:07.900Z,12.29
2017-09-03T05:42:22.041Z,12.33
2017-09-03T05:43:36.258Z,12.29
2017-09-03T05:44:50.237Z,12.32
2017-09-03T05:46:04.330Z,12.3
2017-09-03T05:47:17.934Z,12.44
2017-09-03T05:48:31.820Z,12.5
2017-09-03T05:49:45.820Z,12.57
2017-09-03T05:50:59.648Z,12.58
2017-09-03T05:52:13.320Z,12.55
2017-09-03T05:53:27.113Z,12.58
2017-09-03T05:54:41.123Z,12.53
2017-09-03T05:55:54.711Z,12.69
2017-09-03T05:57:08.301Z,12.68
2017-09-03T05:58:21.886Z,12.9
2017-09-03T05:59:35.620Z,12.86
2017-09-03T06:00:49.488Z,13.01
2017-09-03T06:02:03.108Z,12.91
2017-09-03T06:03:16.717Z,12.83
2017-09-03T06:04:30.292Z,12.86
2017-09-03T06:05:43.905Z,12.95
2017-09-03T06:06:57.850Z,13.08
2017-09-03T06:08:11.431Z,13.05
2017-09-03T06:09:25.223Z,13.17
2017-09-03T06:10:38.784Z,13.21
2017-09-03T06:11:52.385Z,13.33
2017-09-03T06:13:06.318Z,13.36
2017-09-03T06:14:19.921Z,13.2
2017-09-03T06:15:33.489Z,13.33
2017-09-03T06:16:47.077Z,13.52
2017-09-03T06:18:00.658Z,13.6
2017-09-03T06:19:14.673Z,13.7
2017-09-03T06:20:28.314Z,13.65
2017-09-03T06:21:42.396Z,13.61
2017-09-03T06:22:56.021Z,13.6
2017-09-03T06:24:09.949Z,13.5
2017-09-03T06:25:24.201Z,13.57
2017-09-03T06:26:37.980Z,13.57
2017-09-03T06:27:51.695Z,13.67
2017-09-03T06:29:05.821Z,13.61
2017-09-03T06:30:19.762Z,13.61
2017-09-03T06:31:33.666Z,13.68
2017-09-03T06:32:47.293Z,13.75
2017-09-03T06:34:01.513Z,13.8
2017-09-03T06:35:15.090Z,13.83
2017-09-03T06:36:28.687Z,14.03
2017-09-03T06:37:42.566Z,14.11
2017-09-03T06:38:56.197Z,14.2
2017-09-03T06:40:09.771Z,14.08
2017-09-03T06:41:23.430Z,14
2017-09-03T06:42:37.002Z,13.91
2017-09-03T06:43:50.864Z,13.94
2017-09-03T06:45:04.485Z,13.87
2017-09-03T06:46:18.051Z,13.95
2017-09-03T06:47:31.864Z,14.05
2017-09-03T06:48:45.472Z,14.11
2017-09-03T06:49:59.394Z,14.16
2017-09-03T06:51:12.973Z,14.15
2017-09-03T06:52:26.523Z,14.05
2017-09-03T06:53:40.083Z,14.2
2017-09-03T06:54:53.978Z,14.04
2017-09-03T06:56:07.857Z,14.16
2017-09-03T06:57:21.475Z,14.2
2017-09-03T06:58:35.049Z,14.22
2017-09-03T06:59:48.605Z,14.36
2017-09-03T07:01:02.175Z,14.53
2017-09-03T07:02:16.124Z,14.73
2017-09-03T07:03:29.701Z,14.71
2017-09-03T07:04:43.280Z,14.78
2017-09-03T07:05:56.914Z,14.92
2017-09-03T07:07:10.472Z,15.04
2017-09-03T07:08:24.817Z,15.05
2017-09-03T07:09:38.382Z,14.97
2017-09-03T07:10:52.019Z,15
2017-09-03T07:12:05.591Z,14.97
2017-09-03T07:13:19.157Z,14.96
2017-09-03T07:14:33.404Z,15
2017-09-03T07:15:47.004Z,14.99
2017-09-03T07:17:00.864Z,14.94
2017-09-03T07:18:14.456Z,14.96
2017-09-03T07:19:28.050Z,15.04
2017-09-03T07:20:41.898Z,15.08
2017-09-03T07:21:55.455Z,15.05
2017-09-03T07:23:09.197Z,15.11
2017-09-03T07:24:22.790Z,15.23
2017-09-03T07:25:36.348Z,15.43
2017-09-03T07:26:50.262Z,15.47
2017-09-03T07:28:04.162Z,15.69
2017-09-03T07:29:18.200Z,15.99
2017-09-03T07:30:31.948Z,15.9
2017-09-03T07:31:45.693Z,15.91
2017-09-03T07:32:59.726Z,15.85
2017-09-03T07:34:14.124Z,15.9
2017-09-03T07:35:28.251Z,15.99
2017-09-03T07:36:41.938Z,16.05
2017-09-03T07:37:55.512Z,16.12
2017-09-03T07:39:09.546Z,15.99
2017-09-03T07:40:23.190Z,15.94
2017-09-03T07:41:36.950Z,16.03
2017-09-03T07:42:50.523Z,15.9
2017-09-03T07:44:04.875Z,15.83
2017-09-03T07:45:19.556Z,15.85
2017-09-03T07:46:33.513Z,15.8
2017-09-03T07:47:47.101Z,16.02
2017-09-03T07:49:00.749Z,16.1
2017-09-03T07:50:14.576Z,16.13
2017-09-03T07:51:28.836Z,16.06
2017-09-03T07:52:42.416Z,16.18
2017-09-03T07:53:56.007Z,16.17
2017-09-03T07:55:09.678Z,16.22
2017-09-03T07:56:23.396Z,16.17
2017-09-03T07:57:37.833Z,16.05
2017-09-03T07:58:51.437Z,16.03
2017-09-03T08:00:05.062Z,15.92
2017-09-03T08:01:18.732Z,15.99
2017-09-03T08:02:32.306Z,15.96
2017-09-03T08:03:46.284Z,15.94
2017-09-03T08:04:59.890Z,15.94
2017-09-03T08:06:13.489Z,15.9
2017-09-03T08:07:27.085Z,16.05
2017-09-03T08:08:40.691Z,16.1
2017-09-03T08:09:54.700Z,16.17
2017-09-03T08:11:08.694Z,16.05
2017-09-03T08:12:22.271Z,16.09
2017-09-03T08:13:35.854Z,16.09
2017-09-03T08:14:49.426Z,16.21
2017-09-03T08:16:03.340Z,16.32
2017-09-03T08:17:17.383Z,16.44
2017-09-03T08:18:30.982Z,16.41
2017-09-03T08:19:44.968Z,16.41
2017-09-03T08:20:58.579Z,16.46
2017-09-03T08:22:12.521Z,16.68
2017-09-03T08:23:26.551Z,16.83
2017-09-03T08:24:40.131Z,16.95
2017-09-03T08:25:53.710Z,16.97
2017-09-03T08:27:07.647Z,17.09
2017-09-03T08:28:21.555Z,17.05
2017-09-03T08:29:35.133Z,17.09
2017-09-03T08:30:48.811Z,17.04
2017-09-03T08:32:02.447Z,17.01
2017-09-03T08:33:16.025Z,17.14
2017-09-03T08:34:29.916Z,17.28
2017-09-03T08:35:43.806Z,17.44
2017-09-03T08:36:57.835Z,17.44
2017-09-03T08:38:12.232Z,17.47
2017-09-03T08:39:25.851Z,17.72
2017-09-03T08:40:39.795Z,17.66
2017-09-03T08:41:53.395Z,17.73
2017-09-03T08:43:07.357Z,17.76
2017-09-03T08:44:21.030Z,17.71
2017-09-03T08:45:34.900Z,17.65
2017-09-03T08:46:49.703Z,17.65
2017-09-03T08:48:03.471Z,17.82
2017-09-03T08:49:17.190Z,17.87
2017-09-03T08:50:30.847Z,17.78
2017-09-03T08:51:44.594Z,17.9
2017-09-03T08:52:58.530Z,17.91
2017-09-03T08:54:12.160Z,17.91
2017-09-03T08:55:26.080Z,17.95
2017-09-03T08:56:39.995Z,17.88
2017-09-03T08:57:53.784Z,17.82
2017-09-03T08:59:07.661Z,17.8
2017-09-03T09:00:21.560Z,17.69
2017-09-03T09:01:35.156Z,17.59
2017-09-03T09:02:48.755Z,17.44
2017-09-03T09:04:02.365Z,17.46
2017-09-03T09:05:16.651Z,17.17
2017-09-03T09:06:30.235Z,16.97
2017-09-03T09:07:43.837Z,17.04
2017-09-03T09:08:57.815Z,17.07
2017-09-03T09:10:11.604Z,17.24
2017-09-03T09:11:25.907Z,17.38
2017-09-03T09:12:39.631Z,17.41
2017-09-03T09:13:53.286Z,17.46
2017-09-03T09:15:07.207Z,17.53
2017-09-03T09:16:20.794Z,17.56
2017-09-03T09:17:34.674Z,17.65
2017-09-03T09:18:48.242Z,17.66
2017-09-03T09:20:01.997Z,17.73
2017-09-03T09:21:16.024Z,17.8
2017-09-03T09:22:29.694Z,17.82
2017-09-03T09:23:43.617Z,17.66
2017-09-03T09:24:57.538Z,17.56
2017-09-03T09:26:11.139Z,17.42
2017-09-03T09:27:24.736Z,17.27
2017-09-03T09:28:38.368Z,17.27
2017-09-03T09:29:52.300Z,17.16
2017-09-03T09:31:05.954Z,17.1
2017-09-03T09:32:20.409Z,17.19
2017-09-03T09:33:34.392Z,17.22
2017-09-03T09:34:48.039Z,17.14
2017-09-03T09:36:02.447Z,17.22
2017-09-03T09:37:16.388Z,17.39
2017-09-03T09:38:29.982Z,17.47
2017-09-03T09:39:43.639Z,17.59
2017-09-03T09:40:57.231Z,17.53
2017-09-03T09:42:11.136Z,17.44
2017-09-03T09:43:25.115Z,17.59
2017-09-03T09:44:38.726Z,17.52
2017-09-03T09:45:52.401Z,17.69
2017-09-03T09:47:06.228Z,17.6
2017-09-03T09:48:21.016Z,17.8
2017-09-03T09:49:34.638Z,17.86
2017-09-03T09:50:48.615Z,17.82
2017-09-03T09:52:02.199Z,17.95
2017-09-03T09:53:16.281Z,17.91
2017-09-03T09:54:30.181Z,17.78
2017-09-03T09:55:43.872Z,17.84
2017-09-03T09:56:57.477Z,17.76
2017-09-03T09:58:11.066Z,17.72
2017-09-03T09:59:24.879Z,17.65
2017-09-03T10:00:38.760Z,17.63
2017-09-03T10:01:52.360Z,17.8
2017-09-03T10:03:05.958Z,17.76
2017-09-03T10:04:20.104Z,17.82
2017-09-03T10:05:33.730Z,17.84
2017-09-03T10:06:47.673Z,17.91
2017-09-03T10:08:01.616Z,17.95
2017-09-03T10:09:15.553Z,18.15
2017-09-03T10:10:29.231Z,18.19
2017-09-03T10:11:42.927Z,18.37
2017-09-03T10:12:57.150Z,18.39
2017-09-03T10:14:10.739Z,18.46
2017-09-03T10:15:24.377Z,18.53
2017-09-03T10:16:38.700Z,18.41
2017-09-03T10:17:52.344Z,18.51
2017-09-03T10:19:06.286Z,18.52
2017-09-03T10:20:20.428Z,18.58
2017-09-03T10:21:34.090Z,18.66
2017-09-03T10:22:47.673Z,18.64
2017-09-03T10:24:01.264Z,18.61
2017-09-03T10:25:15.513Z,18.7
2017-09-03T10:26:29.310Z,18.67
2017-09-03T10:27:42.996Z,18.79
2017-09-03T10:28:56.748Z,18.81
2017-09-03T10:30:10.367Z,18.96
2017-09-03T10:31:24.331Z,19.11
2017-09-03T10:32:38.018Z,19.15
2017-09-03T10:33:51.610Z,19.27
2017-09-03T10:35:05.283Z,19.32
2017-09-03T10:36:18.956Z,19.42
2017-09-03T10:37:32.868Z,19.49
2017-09-03T10:38:46.505Z,19.67
2017-09-03T10:40:00.111Z,19.66
2017-09-03T10:41:13.943Z,19.78
2017-09-03T10:42:27.548Z,19.6
2017-09-03T10:43:41.436Z,19.64
2017-09-03T10:44:55.486Z,19.56
2017-09-03T10:46:09.110Z,19.52
2017-09-03T10:47:22.711Z,19.47
2017-09-03T10:48:36.489Z,19.35
2017-09-03T10:49:51.050Z,19.32
2017-09-03T10:51:04.636Z,19.26
2017-09-03T10:52:18.430Z,19.22
2017-09-03T10:53:32.246Z,19.29
2017-09-03T10:54:45.946Z,19.22
2017-09-03T10:55:59.841Z,19.29
2017-09-03T11:00:41.711Z,19.48
2017-09-03T11:01:55.300Z,19.49
2017-09-03T11:03:08.884Z,19.53
2017-09-03T11:04:22.670Z,19.52
2017-09-03T11:05:36.305Z,19.64
2017-09-03T11:06:50.230Z,19.67
2017-09-03T11:08:03.854Z,19.64
2017-09-03T11:09:17.726Z,19.56
2017-09-03T11:10:31.436Z,19.62
2017-09-03T11:11:45.543Z,19.67
2017-09-03T11:12:59.465Z,19.64
2017-09-03T11:14:13.211Z,19.63
2017-09-03T11:15:27.008Z,19.6
2017-09-03T11:16:40.679Z,19.63
2017-09-03T11:17:54.941Z,19.49
2017-09-03T11:19:08.817Z,19.62
2017-09-03T11:20:22.426Z,19.63
2017-09-03T11:21:36.080Z,19.57
2017-09-03T11:22:50.661Z,19.84
2017-09-03T11:24:04.700Z,19.99
2017-09-03T11:25:19.549Z,19.97
2017-09-03T11:26:33.529Z,19.78
2017-09-03T11:27:47.814Z,19.74
2017-09-03T11:29:01.567Z,19.78
2017-09-03T11:30:15.409Z,19.7
2017-09-03T11:31:29.348Z,19.7
2017-09-03T11:32:42.954Z,19.57
2017-09-03T11:33:56.633Z,19.71
2017-09-03T11:35:10.556Z,19.71
2017-09-03T11:36:24.294Z,19.72
2017-09-03T11:37:38.179Z,19.72
2017-09-03T11:38:52.395Z,19.79
2017-09-03T11:40:05.986Z,19.81
2017-09-03T11:41:19.632Z,19.82
2017-09-03T11:42:33.261Z,19.9
2017-09-03T11:43:47.704Z,20.02
2017-09-03T11:45:01.609Z,20.07
2017-09-03T11:46:15.205Z,20.17
2017-09-03T11:47:28.822Z,20.11
2017-09-03T11:48:42.485Z,20.22
2017-09-03T11:49:56.424Z,20.36
2017-09-03T11:51:10.134Z,20.42
2017-09-03T11:52:23.780Z,20.56
2017-09-03T11:53:37.572Z,20.56
2017-09-03T11:54:51.155Z,20.74
2017-09-03T11:56:05.042Z,20.6
2017-09-03T11:57:18.795Z,20.39
2017-09-03T11:58:32.755Z,20.39
2017-09-03T11:59:46.380Z,20.39
2017-09-03T12:01:00.244Z,20.42
2017-09-03T12:02:14.332Z,20.53
2017-09-03T12:03:27.948Z,20.6
2017-09-03T12:04:41.750Z,20.78
2017-09-03T12:05:55.450Z,20.82
2017-09-03T12:07:09.052Z,20.85
2017-09-03T12:08:23.610Z,20.88
2017-09-03T12:09:37.214Z,20.78
2017-09-03T12:10:50.937Z,20.89
2017-09-03T12:12:04.543Z,20.73
2017-09-03T12:13:18.163Z,20.9
2017-09-03T12:14:32.038Z,20.89
2017-09-03T12:15:45.980Z,21.04
2017-09-03T12:16:59.947Z,21.19
2017-09-03T12:18:14.223Z,21.29
2017-09-03T12:19:27.827Z,21.44
2017-09-03T12:20:41.713Z,21.48
2017-09-03T12:21:55.419Z,21.23
2017-09-03T12:23:09.033Z,21.29
2017-09-03T12:24:22.639Z,21.35
2017-09-03T12:25:36.232Z,21.43
2017-09-03T12:26:50.374Z,21.26
2017-09-03T12:28:03.973Z,21.33
2017-09-03T12:29:17.604Z,21.44
2017-09-03T12:30:31.641Z,21.6
2017-09-03T12:31:45.769Z,21.68
2017-09-03T12:32:59.690Z,21.81
2017-09-03T12:34:13.364Z,21.92
2017-09-03T12:35:26.977Z,21.96
2017-09-03T12:36:40.921Z,22
2017-09-03T12:37:54.637Z,21.83
2017-09-03T12:39:08.895Z,21.66
2017-09-03T12:40:22.879Z,21.54
2017-09-03T12:41:36.981Z,21.47
2017-09-03T12:42:50.721Z,21.26
2017-09-03T12:44:04.968Z,21.26
2017-09-03T12:45:19.048Z,21.26
2017-09-03T12:46:33.234Z,21.15
2017-09-03T12:47:47.115Z,21.05
2017-09-03T12:49:01.352Z,20.98
2017-09-03T12:50:15.263Z,21.05
2017-09-03T12:51:29.552Z,21.1
2017-09-03T12:52:43.389Z,21.04
2017-09-03T12:53:56.993Z,21.01
2017-09-03T12:55:10.666Z,21.04
2017-09-03T12:56:24.414Z,21.15
2017-09-03T12:57:39.456Z,21.15
2017-09-03T12:58:53.949Z,21.17
2017-09-03T13:00:07.888Z,21.26
2017-09-03T13:01:21.861Z,21.23
2017-09-03T13:02:35.502Z,21.23
2017-09-03T13:03:49.706Z,21.22
2017-09-03T13:05:03.401Z,21.33
2017-09-03T13:06:17.016Z,21.48
2017-09-03T13:07:30.681Z,21.41
2017-09-03T13:08:44.303Z,21.33
2017-09-03T13:09:58.369Z,21.33
2017-09-03T13:11:12.018Z,21.29
2017-09-03T13:12:25.918Z,21.37
2017-09-03T13:13:39.532Z,21.4
2017-09-03T13:14:53.156Z,21.38
2017-09-03T13:16:07.152Z,21.35
2017-09-03T13:17:20.741Z,21.35
2017-09-03T13:18:34.454Z,21.44
2017-09-03T13:19:48.073Z,21.51
2017-09-03T13:21:01.737Z,21.5
2017-09-03T13:22:15.642Z,21.38
2017-09-03T13:23:29.611Z,21.43
2017-09-03T13:24:43.269Z,21.53
2017-09-03T13:25:57.366Z,21.47
2017-09-03T13:27:10.990Z,21.59
2017-09-03T13:28:25.278Z,21.54
2017-09-03T13:29:38.890Z,21.53
2017-09-03T13:30:52.488Z,21.47
2017-09-03T13:32:06.091Z,21.48
2017-09-03T13:33:20.516Z,21.5
2017-09-03T13:34:34.444Z,21.3
2017-09-03T13:35:48.750Z,21.29
2017-09-03T13:37:02.532Z,21.22
2017-09-03T13:38:16.834Z,21.15
2017-09-03T13:39:30.452Z,21.08
2017-09-03T13:40:44.497Z,21.07
2017-09-03T13:41:58.447Z,20.89
2017-09-03T13:43:12.166Z,20.86
2017-09-03T13:44:25.916Z,21.05
2017-09-03T13:45:39.657Z,21.03
2017-09-03T13:46:53.628Z,20.88
2017-09-03T13:48:07.240Z,20.85
2017-09-03T13:49:21.005Z,20.73
2017-09-03T13:50:34.656Z,20.71
2017-09-03T13:51:49.049Z,20.58
2017-09-03T13:53:03.432Z,20.4
2017-09-03T13:54:17.657Z,20.49
2017-09-03T13:55:31.313Z,20.56
2017-09-03T13:56:44.938Z,20.63
2017-09-03T13:57:58.892Z,20.64
2017-09-03T13:59:13.327Z,20.66
2017-09-03T14:00:27.321Z,20.63
2017-09-03T14:01:40.972Z,20.58
2017-09-03T14:02:54.944Z,20.67
2017-09-03T14:04:08.563Z,20.58
2017-09-03T14:05:23.049Z,20.53
2017-09-03T14:06:37.493Z,20.49
2017-09-03T14:07:51.121Z,20.52
2017-09-03T14:09:05.176Z,20.4
2017-09-03T14:10:18.960Z,20.39
2017-09-03T14:11:32.976Z,20.4
2017-09-03T14:12:46.785Z,20.4
2017-09-03T14:14:00.797Z,20.42
2017-09-03T14:15:14.851Z,20.42
2017-09-03T14:16:28.552Z,20.39
2017-09-03T14:17:42.621Z,20.37
2017-09-03T14:18:56.893Z,20.32
2017-09-03T14:20:10.865Z,20.29
2017-09-03T14:21:25.899Z,20.33
2017-09-03T14:22:39.649Z,20.39
2017-09-03T14:23:53.949Z,20.36
2017-09-03T14:25:07.661Z,20.53
2017-09-03T14:26:21.343Z,20.56
2017-09-03T14:27:35.352Z,20.64
2017-09-03T14:29:08.667Z,20.74
2017-09-03T14:30:22.658Z,20.83
2017-09-03T14:31:36.681Z,20.88
2017-09-03T14:32:50.321Z,20.95
2017-09-03T14:34:03.963Z,20.86
2017-09-03T14:35:17.936Z,20.74
2017-09-03T14:36:31.633Z,20.85
2017-09-03T14:37:45.683Z,20.85
2017-09-03T14:42:03.955Z,20.89
2017-09-03T14:43:17.952Z,20.9
2017-09-03T14:44:31.599Z,20.98
2017-09-03T14:45:45.387Z,20.95
2017-09-03T14:46:59.451Z,20.9
2017-09-03T14:48:13.090Z,20.86
2017-09-03T14:49:26.898Z,20.88
2017-09-03T14:50:40.615Z,20.82
2017-09-03T14:51:54.524Z,20.89
2017-09-03T14:53:08.837Z,20.86
2017-09-03T14:54:22.505Z,20.96
2017-09-03T14:55:36.179Z,20.92
2017-09-03T14:56:50.476Z,20.95
2017-09-03T14:58:04.110Z,20.98
2017-09-03T14:59:18.490Z,20.86
2017-09-03T15:00:32.136Z,20.74
2017-09-03T15:01:45.785Z,20.64
2017-09-03T15:02:59.369Z,20.59
2017-09-03T15:04:12.949Z,20.59
2017-09-03T15:05:27.230Z,20.56
2017-09-03T15:06:40.880Z,20.73
2017-09-03T15:07:55.042Z,20.71
2017-09-03T15:09:08.873Z,20.74
2017-09-03T15:10:23.237Z,20.68
2017-09-03T15:11:37.595Z,20.64
2017-09-03T15:12:51.687Z,20.73
2017-09-03T15:14:05.349Z,20.68
2017-09-03T15:15:18.996Z,20.73
2017-09-03T15:16:33.012Z,20.74
2017-09-03T15:17:47.400Z,20.85
2017-09-03T15:19:01.030Z,20.82
2017-09-03T15:20:15.297Z,20.83
2017-09-03T15:21:28.892Z,20.77
2017-09-03T15:22:42.930Z,20.73
2017-09-03T15:23:56.897Z,20.86
2017-09-03T15:25:10.521Z,20.92
2017-09-03T15:26:24.189Z,20.83
2017-09-03T15:27:38.005Z,20.78
2017-09-03T15:28:51.658Z,20.83
2017-09-03T15:30:05.577Z,20.92
2017-09-03T15:31:19.225Z,20.88
2017-09-03T15:32:32.922Z,20.88
2017-09-03T15:33:47.163Z,20.89
2017-09-03T15:35:00.862Z,20.95
2017-09-03T15:36:15.854Z,20.89
2017-09-03T15:37:29.479Z,20.89
2017-09-03T15:38:43.322Z,20.82
2017-09-03T15:39:57.003Z,20.86
2017-09-03T15:41:10.971Z,20.88
2017-09-03T15:42:24.907Z,21.05
2017-09-03T15:43:38.890Z,21.03
2017-09-03T15:44:52.713Z,21.07
2017-09-03T15:46:06.751Z,21.05
2017-09-03T15:47:20.498Z,21.14
2017-09-03T15:48:35.002Z,21.01
2017-09-03T15:49:49.601Z,20.96
2017-09-03T15:51:04.161Z,20.92
2017-09-03T15:52:18.233Z,20.93
2017-09-03T15:53:32.696Z,20.88
2017-09-03T15:54:47.042Z,20.93
2017-09-03T15:56:00.893Z,21.05
2017-09-03T15:57:14.875Z,21.08
2017-09-03T15:58:28.849Z,21.17
2017-09-03T15:59:42.452Z,21.15
2017-09-03T16:00:56.799Z,21.25
2017-09-03T16:02:10.641Z,21.25